Portada
METAR-TAF:

METAR-TAF

Aeroports :

Freeport, Illinois, Estats Units d'Amèrica

Albertus Airport

latitud: 42-14-47N, longitud: 089-34-56W, altitud: 262 m

Observació

L'informe es va fer fa 15 hores i 53 minuts, a les 15:15 UTC
Vent calma
Temperatura 3°C
Humitat 100%
Pressió 1011 hPa
Visibilitat: 11.3 km
Cel cobert a una alçada de 500 ft

METAR: KFEP 201515Z AUTO 00000KT 7SM OVC005 03/03 A2985 RMK AO2 T00260026

Hora: 01:08 (07:08 UTC)


TAF: manca

Observacions i pronòstics meteorològics de més de 4000 aeroports (METAR i TAF).

Les estacions disponibles són els punts grocs i vermells al mapa.

Posi el ratolí al punt desitjat per veure el nom de l'estació.

Feu clic per veure les observacions i els pronòstics meteorològics.

Per canviar el mapa: feu clic els botons verds amb una creu de color negre per apropar; al botó verd amb un guió per allunyar la imatge; o en les fletxes verdes per a mapes adjacents.


METAR-TAF: